createdAt,value
2023-04-09T00:00:27.302Z,16.40
2023-04-09T00:02:54.704Z,16.63
2023-04-09T00:05:22.146Z,16.07
2023-04-09T00:07:49.599Z,17.00
2023-04-09T00:10:16.987Z,19.17
2023-04-09T00:12:44.223Z,18.77
2023-04-09T00:15:20.619Z,18.43
2023-04-09T00:17:56.610Z,19.20
2023-04-09T00:20:24.287Z,17.73
2023-04-09T00:22:52.639Z,17.40
2023-04-09T00:25:20.197Z,16.33
2023-04-09T00:27:47.781Z,19.07
2023-04-09T00:30:15.154Z,17.57
2023-04-09T00:32:42.772Z,19.03
2023-04-09T00:35:10.223Z,18.43
2023-04-09T00:37:37.704Z,20.63
2023-04-09T00:40:05.629Z,17.97
2023-04-09T00:42:36.702Z,20.50
2023-04-09T00:45:04.864Z,19.67
2023-04-09T00:47:32.186Z,19.67
2023-04-09T00:49:59.680Z,19.57
2023-04-09T00:52:26.961Z,17.37
2023-04-09T00:54:54.294Z,17.60
2023-04-09T00:57:22.156Z,14.47
2023-04-09T00:59:49.338Z,12.77
2023-04-09T01:02:16.962Z,14.10
2023-04-09T01:04:44.506Z,16.93
2023-04-09T01:07:19.112Z,16.40
2023-04-09T01:10:06.184Z,17.97
2023-04-09T01:12:47.075Z,19.13
2023-04-09T01:15:21.038Z,19.53
2023-04-09T01:17:53.531Z,17.20
2023-04-09T01:20:31.232Z,16.73
2023-04-09T01:23:03.197Z,19.57
2023-04-09T01:25:41.638Z,16.93
2023-04-09T01:28:22.479Z,16.87
2023-04-09T01:30:50.918Z,15.93
2023-04-09T01:33:19.266Z,17.90
2023-04-09T01:35:49.956Z,16.37
2023-04-09T01:38:18.877Z,20.97
2023-04-09T01:40:46.411Z,16.87
2023-04-09T01:43:13.797Z,18.53
2023-04-09T01:45:41.556Z,20.40
2023-04-09T01:48:09.018Z,24.97
2023-04-09T01:50:36.515Z,18.63
2023-04-09T01:53:03.664Z,19.93
2023-04-09T01:55:31.247Z,17.93
2023-04-09T01:57:58.446Z,18.37
2023-04-09T02:00:27.659Z,22.53
2023-04-09T02:03:06.459Z,21.03
2023-04-09T02:05:36.952Z,35.13
2023-04-09T02:08:04.175Z,24.03
2023-04-09T02:10:32.274Z,22.33
2023-04-09T02:12:59.487Z,18.60
2023-04-09T02:15:26.832Z,17.00
2023-04-09T02:17:54.126Z,15.53
2023-04-09T02:20:22.106Z,15.53
2023-04-09T02:22:49.338Z,17.37
2023-04-09T02:25:16.525Z,17.37
2023-04-09T02:27:43.862Z,17.60
2023-04-09T02:30:12.030Z,22.43
2023-04-09T02:32:39.352Z,21.27
2023-04-09T02:35:07.144Z,19.93
2023-04-09T02:37:34.540Z,21.60
2023-04-09T02:40:01.914Z,16.80
2023-04-09T02:42:29.272Z,20.10
2023-04-09T02:44:56.605Z,21.37
2023-04-09T02:47:23.913Z,19.47
2023-04-09T02:49:51.213Z,19.90
2023-04-09T02:52:20.414Z,17.90
2023-04-09T02:54:47.782Z,17.80
2023-04-09T02:57:15.009Z,17.50
2023-04-09T02:59:42.446Z,19.80
2023-04-09T03:02:10.018Z,18.97
2023-04-09T03:04:37.414Z,20.67
2023-04-09T03:07:04.838Z,20.00
2023-04-09T03:09:32.062Z,18.00
2023-04-09T03:11:59.243Z,19.40
2023-04-09T03:14:26.626Z,18.97
2023-04-09T03:16:53.759Z,16.50
2023-04-09T03:19:21.020Z,18.57
2023-04-09T03:21:49.589Z,17.10
2023-04-09T03:24:17.024Z,18.00
2023-04-09T03:26:44.478Z,16.20
2023-04-09T03:29:11.617Z,18.70
2023-04-09T03:31:39.126Z,18.43
2023-04-09T03:34:06.633Z,17.20
2023-04-09T03:36:33.984Z,17.47
2023-04-09T03:39:01.961Z,17.93
2023-04-09T03:41:29.261Z,18.30
2023-04-09T03:43:56.851Z,17.20
2023-04-09T03:46:24.135Z,18.63
2023-04-09T03:48:54.637Z,16.80
2023-04-09T03:51:22.496Z,15.50
2023-04-09T03:53:50.045Z,17.87
2023-04-09T03:56:17.414Z,18.03
2023-04-09T03:58:47.402Z,19.60
2023-04-09T04:01:14.708Z,17.47
2023-04-09T04:03:43.245Z,17.70
2023-04-09T04:06:11.007Z,17.07
2023-04-09T04:08:38.426Z,21.40
2023-04-09T04:11:05.916Z,18.07
2023-04-09T04:13:33.294Z,16.97
2023-04-09T04:16:00.556Z,19.33
2023-04-09T04:18:27.992Z,18.07
2023-04-09T04:20:56.346Z,21.40
2023-04-09T04:23:23.891Z,16.47
2023-04-09T04:25:53.304Z,17.87
2023-04-09T04:28:20.545Z,20.00
2023-04-09T04:30:47.794Z,18.43
2023-04-09T04:33:15.018Z,16.03
2023-04-09T04:35:42.390Z,16.73
2023-04-09T04:38:09.908Z,20.57
2023-04-09T04:40:37.258Z,17.27
2023-04-09T04:43:10.486Z,18.80
2023-04-09T04:45:38.015Z,17.73
2023-04-09T04:48:05.549Z,17.10
2023-04-09T04:50:33.385Z,23.73
2023-04-09T04:53:00.848Z,18.37
2023-04-09T04:55:28.282Z,18.70
2023-04-09T04:57:56.935Z,20.47
2023-04-09T05:00:24.309Z,20.33
2023-04-09T05:02:51.897Z,17.33
2023-04-09T05:05:19.511Z,17.13
2023-04-09T05:07:47.030Z,19.33
2023-04-09T05:10:14.364Z,17.70
2023-04-09T05:12:41.854Z,19.47
2023-04-09T05:15:09.424Z,20.27
2023-04-09T05:17:36.976Z,20.23
2023-04-09T05:20:04.744Z,19.87
2023-04-09T05:22:32.292Z,18.87
2023-04-09T05:24:59.723Z,19.70
2023-04-09T05:27:27.766Z,19.20
2023-04-09T05:29:55.299Z,19.67
2023-04-09T05:32:22.700Z,27.43
2023-04-09T05:34:50.316Z,26.03
2023-04-09T05:37:17.638Z,24.13
2023-04-09T05:39:44.962Z,24.83
2023-04-09T05:42:12.318Z,27.43
2023-04-09T05:44:39.740Z,36.07
2023-04-09T05:47:07.562Z,30.97
2023-04-09T05:49:35.023Z,28.87
2023-04-09T05:52:02.462Z,32.13
2023-04-09T05:54:29.919Z,30.47
2023-04-09T05:56:57.444Z,26.13
2023-04-09T05:59:24.784Z,28.27
2023-04-09T06:01:52.145Z,25.13
2023-04-09T06:04:19.612Z,26.73
2023-04-09T06:06:47.319Z,23.10
2023-04-09T06:09:14.720Z,23.67
2023-04-09T06:11:41.931Z,22.80
2023-04-09T06:14:09.402Z,20.07
2023-04-09T06:16:36.963Z,25.57
2023-04-09T06:19:04.381Z,17.97
2023-04-09T06:21:31.849Z,17.60
2023-04-09T06:23:59.300Z,16.20
2023-04-09T06:26:27.496Z,15.80
2023-04-09T06:28:55.011Z,17.60
2023-04-09T06:31:22.618Z,14.63
2023-04-09T06:33:50.190Z,15.17
2023-04-09T06:36:17.566Z,14.00
2023-04-09T06:38:44.881Z,15.07
2023-04-09T06:41:12.958Z,15.93
2023-04-09T06:43:40.358Z,14.23
2023-04-09T06:46:08.139Z,14.70
2023-04-09T06:48:35.703Z,13.47
2023-04-09T06:51:03.164Z,14.27
2023-04-09T06:53:30.789Z,12.83
2023-04-09T06:55:58.200Z,13.33
2023-04-09T06:58:25.754Z,12.70
2023-04-09T07:00:52.888Z,14.57
2023-04-09T07:03:20.457Z,14.37
2023-04-09T07:05:47.994Z,15.67
2023-04-09T07:08:15.702Z,13.23
2023-04-09T07:10:43.231Z,11.60
2023-04-09T07:13:10.971Z,12.83
2023-04-09T07:15:40.017Z,12.80
2023-04-09T07:18:09.442Z,12.40
2023-04-09T07:20:37.043Z,10.07
2023-04-09T07:23:05.493Z,10.00
2023-04-09T07:25:32.898Z,10.97
2023-04-09T07:28:00.368Z,10.73
2023-04-09T07:30:27.847Z,8.90
2023-04-09T07:32:55.475Z,9.83
2023-04-09T07:35:22.756Z,9.13
2023-04-09T07:37:50.181Z,8.37
2023-04-09T07:40:17.640Z,7.83
2023-04-09T07:42:44.970Z,9.83
2023-04-09T07:45:12.394Z,10.87
2023-04-09T07:47:41.655Z,25.00
2023-04-09T07:50:09.748Z,11.37
2023-04-09T07:52:37.255Z,13.43
2023-04-09T07:55:05.158Z,12.70
2023-04-09T07:57:33.396Z,9.07
2023-04-09T08:00:00.802Z,9.10
2023-04-09T08:02:28.310Z,8.73
2023-04-09T08:04:55.936Z,9.47
2023-04-09T08:07:23.356Z,9.70
2023-04-09T08:09:50.884Z,9.53
2023-04-09T08:12:18.547Z,7.20
2023-04-09T08:14:46.231Z,7.63
2023-04-09T08:17:13.725Z,8.37
2023-04-09T08:19:41.915Z,6.83
2023-04-09T08:22:09.349Z,7.20
2023-04-09T08:24:37.190Z,6.23
2023-04-09T08:27:05.381Z,8.20
2023-04-09T08:29:32.886Z,7.20
2023-04-09T08:32:00.421Z,6.53
2023-04-09T08:34:28.446Z,7.10
2023-04-09T08:36:56.354Z,8.47
2023-04-09T08:39:23.919Z,7.67
2023-04-09T08:41:52.621Z,7.97
2023-04-09T08:44:20.360Z,7.70
2023-04-09T08:46:47.680Z,8.47
2023-04-09T08:49:14.865Z,9.00
2023-04-09T08:51:48.565Z,9.07
2023-04-09T08:54:20.339Z,7.70
2023-04-09T08:56:48.103Z,9.00
2023-04-09T08:59:18.960Z,9.63
2023-04-09T09:01:48.164Z,9.47
2023-04-09T09:04:16.022Z,9.83
2023-04-09T09:06:43.586Z,10.83
2023-04-09T09:09:17.523Z,9.57
2023-04-09T09:11:50.641Z,13.73
2023-04-09T09:14:19.383Z,11.27
2023-04-09T09:16:59.253Z,11.13
2023-04-09T09:19:26.927Z,13.83
2023-04-09T09:22:05.373Z,12.20
2023-04-09T09:24:34.584Z,12.70
2023-04-09T09:27:02.868Z,13.60
2023-04-09T09:29:30.403Z,12.17
2023-04-09T09:31:57.760Z,14.13
2023-04-09T09:34:25.541Z,14.97
2023-04-09T09:36:52.813Z,13.80
2023-04-09T09:39:20.944Z,14.07
2023-04-09T09:41:49.102Z,14.30
2023-04-09T09:44:32.971Z,16.23
2023-04-09T09:47:00.963Z,13.10
2023-04-09T09:49:28.317Z,13.43
2023-04-09T09:51:58.092Z,16.07
2023-04-09T09:54:26.239Z,15.67
2023-04-09T09:56:53.782Z,16.47
2023-04-09T09:59:24.513Z,15.93
2023-04-09T10:02:06.645Z,14.77
2023-04-09T10:04:38.444Z,14.23
2023-04-09T10:07:07.463Z,15.53
2023-04-09T10:09:36.074Z,18.03
2023-04-09T10:12:04.311Z,18.20
2023-04-09T10:14:31.661Z,17.27
2023-04-09T10:16:59.238Z,17.07
2023-04-09T10:19:27.439Z,16.87
2023-04-09T10:21:58.084Z,18.60
2023-04-09T10:24:25.748Z,19.53
2023-04-09T10:26:55.031Z,19.33
2023-04-09T10:29:28.565Z,21.13
2023-04-09T10:32:07.705Z,19.53
2023-04-09T10:34:42.941Z,21.13
2023-04-09T10:37:14.526Z,21.77
2023-04-09T10:39:45.201Z,21.77
2023-04-09T10:42:25.271Z,20.17
2023-04-09T10:45:09.404Z,21.13
2023-04-09T10:47:40.890Z,18.80
2023-04-09T10:50:18.895Z,19.67
2023-04-09T10:52:46.520Z,22.53
2023-04-09T10:55:42.179Z,20.73
2023-04-09T10:58:12.614Z,22.20
2023-04-09T11:00:42.471Z,17.90
2023-04-09T11:03:30.810Z,20.87
2023-04-09T11:06:03.708Z,24.10
2023-04-09T11:08:32.957Z,18.67
2023-04-09T11:11:01.937Z,20.97
2023-04-09T11:13:30.344Z,20.77
2023-04-09T11:15:57.948Z,18.57
2023-04-09T11:18:26.719Z,18.57
2023-04-09T11:21:01.379Z,18.40
2023-04-09T11:23:29.146Z,21.27
2023-04-09T11:25:56.865Z,21.03
2023-04-09T11:28:24.482Z,17.67
2023-04-09T11:30:52.095Z,20.73
2023-04-09T11:33:20.397Z,18.67
2023-04-09T11:35:48.668Z,19.00
2023-04-09T11:38:16.401Z,17.40
2023-04-09T11:40:51.729Z,17.07
2023-04-09T11:43:21.266Z,16.50
2023-04-09T11:45:48.935Z,16.80
2023-04-09T11:48:18.716Z,17.27
2023-04-09T11:50:46.803Z,16.17
2023-04-09T11:53:21.170Z,17.67
2023-04-09T11:55:52.538Z,19.63
2023-04-09T11:58:23.828Z,15.77
2023-04-09T12:00:55.329Z,16.60
2023-04-09T12:03:30.077Z,19.47
2023-04-09T12:05:57.759Z,16.77
2023-04-09T12:08:25.226Z,16.60
2023-04-09T12:10:54.175Z,17.97
2023-04-09T12:13:22.023Z,17.27
2023-04-09T12:15:49.810Z,16.63
2023-04-09T12:18:17.112Z,17.90
2023-04-09T12:20:45.036Z,16.73
2023-04-09T12:23:12.949Z,16.27
2023-04-09T12:25:41.701Z,23.97
2023-04-09T12:28:11.984Z,16.83
2023-04-09T12:30:39.250Z,18.57
2023-04-09T12:33:08.252Z,19.60
2023-04-09T12:35:38.513Z,26.87
2023-04-09T12:38:06.105Z,18.57
2023-04-09T12:40:33.893Z,21.00
2023-04-09T12:43:01.904Z,19.37
2023-04-09T12:45:30.090Z,19.47
2023-04-09T12:47:57.627Z,21.47
2023-04-09T12:50:25.089Z,28.37
2023-04-09T12:52:52.549Z,19.07
2023-04-09T12:55:20.041Z,20.77
2023-04-09T12:57:49.312Z,19.07
2023-04-09T13:00:17.039Z,20.17
2023-04-09T13:02:44.551Z,21.13
2023-04-09T13:05:12.170Z,19.33
2023-04-09T13:07:41.591Z,19.87
2023-04-09T13:10:10.287Z,22.43
2023-04-09T13:12:37.794Z,21.47
2023-04-09T13:15:05.608Z,22.80
2023-04-09T13:17:32.828Z,21.43
2023-04-09T13:20:00.290Z,17.37
2023-04-09T13:22:27.763Z,17.83
2023-04-09T13:24:55.281Z,16.90
2023-04-09T13:27:22.790Z,20.63
2023-04-09T13:29:49.950Z,18.47
2023-04-09T13:32:18.515Z,21.23
2023-04-09T13:34:46.470Z,16.80
2023-04-09T13:37:13.805Z,17.00
2023-04-09T13:39:41.111Z,20.50
2023-04-09T13:42:13.652Z,19.33
2023-04-09T13:44:45.024Z,19.47
2023-04-09T13:47:13.450Z,21.67
2023-04-09T13:49:41.583Z,23.10
2023-04-09T13:52:09.283Z,16.80
2023-04-09T13:54:36.565Z,18.50
2023-04-09T13:57:04.369Z,20.37
2023-04-09T13:59:31.798Z,18.57
2023-04-09T14:01:59.352Z,17.87
2023-04-09T14:04:27.033Z,21.50
2023-04-09T14:06:54.470Z,17.70
2023-04-09T14:09:21.672Z,15.93
2023-04-09T14:11:49.833Z,18.13
2023-04-09T14:14:17.956Z,19.73
2023-04-09T14:16:45.447Z,16.40
2023-04-09T14:19:12.941Z,16.87
2023-04-09T14:21:40.871Z,16.13
2023-04-09T14:24:08.323Z,17.20
2023-04-09T14:26:35.683Z,16.40
2023-04-09T14:29:03.724Z,16.90
2023-04-09T14:31:31.105Z,17.63
2023-04-09T14:33:58.360Z,16.30
2023-04-09T14:36:27.191Z,16.83
2023-04-09T14:38:57.469Z,18.43
2023-04-09T14:41:25.544Z,17.73
2023-04-09T14:43:52.872Z,18.50
2023-04-09T14:46:20.589Z,20.93
2023-04-09T14:48:48.088Z,18.10
2023-04-09T14:51:15.577Z,19.40
2023-04-09T14:53:42.961Z,21.83
2023-04-09T14:56:10.405Z,20.07
2023-04-09T14:58:37.600Z,21.43
2023-04-09T15:01:04.979Z,18.93
2023-04-09T15:03:32.465Z,19.50
2023-04-09T15:06:00.182Z,21.47
2023-04-09T15:08:27.669Z,17.67
2023-04-09T15:10:54.914Z,19.70
2023-04-09T15:13:22.328Z,19.53
2023-04-09T15:15:49.655Z,17.63
2023-04-09T15:18:17.182Z,19.00
2023-04-09T15:20:44.455Z,19.37
2023-04-09T15:23:11.688Z,18.77
2023-04-09T15:25:39.432Z,20.13
2023-04-09T15:28:07.115Z,16.00
2023-04-09T15:30:35.771Z,16.47
2023-04-09T15:33:03.161Z,16.47
2023-04-09T15:35:30.760Z,18.10
2023-04-09T15:37:58.372Z,16.87
2023-04-09T15:40:25.796Z,14.83
2023-04-09T15:42:53.260Z,14.70
2023-04-09T15:45:20.617Z,14.47
2023-04-09T15:47:48.038Z,16.27
2023-04-09T15:50:15.750Z,15.53
2023-04-09T15:52:43.297Z,16.50
2023-04-09T15:55:10.897Z,14.97
2023-04-09T15:57:38.970Z,18.00
2023-04-09T16:00:11.119Z,18.30
2023-04-09T16:02:39.165Z,18.37
2023-04-09T16:05:07.531Z,19.50
2023-04-09T16:07:34.925Z,17.87
2023-04-09T16:10:02.641Z,17.63
2023-04-09T16:12:30.093Z,18.07
2023-04-09T16:14:57.301Z,18.80
2023-04-09T16:17:24.773Z,19.83
2023-04-09T16:19:52.098Z,18.50
2023-04-09T16:22:19.502Z,20.40
2023-04-09T16:24:46.804Z,17.60
2023-04-09T16:27:14.689Z,18.60
2023-04-09T16:29:42.204Z,18.60
2023-04-09T16:32:09.678Z,17.73
2023-04-09T16:34:37.501Z,16.20
2023-04-09T16:37:05.043Z,20.10
2023-04-09T16:39:32.337Z,17.97
2023-04-09T16:41:59.857Z,19.47
2023-04-09T16:44:27.117Z,21.60
2023-04-09T16:46:54.563Z,18.27
2023-04-09T16:49:21.923Z,18.70
2023-04-09T16:51:52.109Z,18.70
2023-04-09T16:54:19.288Z,19.93
2023-04-09T16:56:48.779Z,19.90
2023-04-09T16:59:18.727Z,21.17
2023-04-09T17:01:46.526Z,18.23
2023-04-09T17:04:13.925Z,17.20
2023-04-09T17:06:41.511Z,18.90
2023-04-09T17:09:08.662Z,17.20
2023-04-09T17:11:38.227Z,17.87
2023-04-09T17:14:06.794Z,16.20
2023-04-09T17:16:34.240Z,13.50
2023-04-09T17:19:01.628Z,12.87
2023-04-09T17:21:28.802Z,14.30
2023-04-09T17:23:56.143Z,15.00
2023-04-09T17:26:24.946Z,13.30
2023-04-09T17:28:52.781Z,14.17
2023-04-09T17:31:24.024Z,14.17
2023-04-09T17:33:52.039Z,14.90
2023-04-09T17:36:23.281Z,14.90
2023-04-09T17:38:53.146Z,14.50
2023-04-09T17:41:20.732Z,12.83
2023-04-09T17:43:48.316Z,14.93
2023-04-09T17:46:17.372Z,14.67
2023-04-09T17:48:44.731Z,14.40
2023-04-09T17:51:16.883Z,14.60
2023-04-09T17:53:44.239Z,18.27
2023-04-09T17:56:17.898Z,15.63
2023-04-09T17:58:45.398Z,15.13
2023-04-09T18:01:13.814Z,14.40
2023-04-09T18:03:43.057Z,16.30
2023-04-09T18:06:11.192Z,16.30
2023-04-09T18:08:38.879Z,15.97
2023-04-09T18:11:12.283Z,16.10
2023-04-09T18:13:40.796Z,16.07
2023-04-09T18:16:12.530Z,15.03
2023-04-09T18:18:40.372Z,15.53
2023-04-09T18:21:07.935Z,15.50
2023-04-09T18:23:35.590Z,15.80
2023-04-09T18:26:03.284Z,15.07
2023-04-09T18:28:30.510Z,15.40
2023-04-09T18:30:58.090Z,15.00
2023-04-09T18:33:26.882Z,16.30
2023-04-09T18:35:54.628Z,15.50
2023-04-09T18:38:22.264Z,16.13
2023-04-09T18:40:49.694Z,21.03
2023-04-09T18:43:17.146Z,15.47
2023-04-09T18:45:44.725Z,17.87
2023-04-09T18:48:11.944Z,16.70
2023-04-09T18:50:39.233Z,17.10
2023-04-09T18:53:07.432Z,16.87
2023-04-09T18:55:38.419Z,18.23
2023-04-09T18:58:09.148Z,18.17
2023-04-09T19:00:36.901Z,21.50
2023-04-09T19:03:04.814Z,25.47
2023-04-09T19:05:32.992Z,22.53
2023-04-09T19:08:04.546Z,16.83
2023-04-09T19:10:33.499Z,19.53
2023-04-09T19:13:00.846Z,21.63
2023-04-09T19:15:29.645Z,18.83
2023-04-09T19:17:57.289Z,18.17
2023-04-09T19:20:24.658Z,20.37
2023-04-09T19:22:54.634Z,20.30
2023-04-09T19:25:23.229Z,17.67
2023-04-09T19:27:50.560Z,20.13
2023-04-09T19:30:17.809Z,20.03
2023-04-09T19:32:45.746Z,18.47
2023-04-09T19:35:13.041Z,18.07
2023-04-09T19:37:40.805Z,21.37
2023-04-09T19:40:08.973Z,18.97
2023-04-09T19:42:36.366Z,20.47
2023-04-09T19:45:03.679Z,18.43
2023-04-09T19:47:31.125Z,18.40
2023-04-09T19:49:58.508Z,21.27
2023-04-09T19:52:26.315Z,19.67
2023-04-09T19:54:56.675Z,19.37
2023-04-09T19:57:23.925Z,20.53
2023-04-09T19:59:52.538Z,20.57
2023-04-09T20:02:20.167Z,29.00
2023-04-09T20:04:47.709Z,28.90
2023-04-09T20:07:15.903Z,22.40
2023-04-09T20:09:43.770Z,26.70
2023-04-09T20:12:11.303Z,19.47
2023-04-09T20:14:39.547Z,20.53
2023-04-09T20:17:09.149Z,20.43
2023-04-09T20:19:36.606Z,18.23
2023-04-09T20:22:03.972Z,18.40
2023-04-09T20:24:31.240Z,18.07
2023-04-09T20:26:59.825Z,18.13
2023-04-09T20:29:27.362Z,18.97
2023-04-09T20:31:54.897Z,19.20
2023-04-09T20:34:26.977Z,18.80
2023-04-09T20:36:54.920Z,18.57
2023-04-09T20:39:23.118Z,20.30
2023-04-09T20:41:50.670Z,17.73
2023-04-09T20:44:18.347Z,18.60
2023-04-09T20:46:46.174Z,19.87
2023-04-09T20:49:13.672Z,18.97
2023-04-09T20:51:41.163Z,18.80
2023-04-09T20:54:08.474Z,18.13
2023-04-09T20:56:36.233Z,20.00
2023-04-09T20:59:04.027Z,18.07
2023-04-09T21:01:32.464Z,20.67
2023-04-09T21:04:00.034Z,23.10
2023-04-09T21:06:27.632Z,24.67
2023-04-09T21:08:56.657Z,33.77
2023-04-09T21:11:24.805Z,44.73
2023-04-09T21:13:54.970Z,34.13
2023-04-09T21:16:23.506Z,20.63
2023-04-09T21:18:51.354Z,17.83
2023-04-09T21:21:19.218Z,19.13
2023-04-09T21:23:46.722Z,19.40
2023-04-09T21:26:16.464Z,18.80
2023-04-09T21:28:44.436Z,19.73
2023-04-09T21:31:12.047Z,18.33
2023-04-09T21:33:39.584Z,19.80
2023-04-09T21:36:08.309Z,19.97
2023-04-09T21:38:35.723Z,19.77
2023-04-09T21:41:03.154Z,19.50
2023-04-09T21:43:30.826Z,19.57
2023-04-09T21:45:58.451Z,20.37
2023-04-09T21:48:26.889Z,20.87
2023-04-09T21:50:54.293Z,19.70
2023-04-09T21:53:21.809Z,20.77
2023-04-09T21:55:49.573Z,18.87
2023-04-09T21:58:17.058Z,19.47
2023-04-09T22:00:44.556Z,18.77
2023-04-09T22:03:12.162Z,18.20
2023-04-09T22:05:39.711Z,21.60
2023-04-09T22:08:07.506Z,18.43
2023-04-09T22:10:34.979Z,20.03
2023-04-09T22:13:02.561Z,22.47
2023-04-09T22:15:30.033Z,22.17
2023-04-09T22:17:57.804Z,23.97
2023-04-09T22:20:26.552Z,20.97
2023-04-09T22:22:54.998Z,20.37
2023-04-09T22:25:22.469Z,17.27
2023-04-09T22:27:54.507Z,18.93
2023-04-09T22:30:24.032Z,19.20
2023-04-09T22:32:51.994Z,19.97
2023-04-09T22:35:19.703Z,18.03
2023-04-09T22:37:47.297Z,20.10
2023-04-09T22:40:16.315Z,24.13
2023-04-09T22:42:44.431Z,21.60
2023-04-09T22:45:12.079Z,19.93
2023-04-09T22:47:39.797Z,24.97
2023-04-09T22:50:07.874Z,21.80
2023-04-09T22:52:35.247Z,22.00
2023-04-09T22:55:02.642Z,18.90
2023-04-09T22:57:30.706Z,19.73
2023-04-09T22:59:57.996Z,19.33
2023-04-09T23:02:25.410Z,20.93
2023-04-09T23:04:52.930Z,22.53
2023-04-09T23:07:20.279Z,28.67
2023-04-09T23:09:47.672Z,30.87
2023-04-09T23:12:14.948Z,20.63
2023-04-09T23:14:42.344Z,23.17
2023-04-09T23:17:10.118Z,20.47
2023-04-09T23:19:37.597Z,24.33
2023-04-09T23:22:05.058Z,43.80
2023-04-09T23:24:32.586Z,41.87
2023-04-09T23:26:59.999Z,26.07
2023-04-09T23:29:27.427Z,20.10
2023-04-09T23:31:54.881Z,21.17
2023-04-09T23:34:22.509Z,19.10
2023-04-09T23:36:49.982Z,19.70
2023-04-09T23:39:17.218Z,19.90
2023-04-09T23:41:44.709Z,17.43
2023-04-09T23:44:12.099Z,17.63
2023-04-09T23:46:41.458Z,20.17
2023-04-09T23:49:08.794Z,20.03
2023-04-09T23:51:36.244Z,19.50
2023-04-09T23:54:03.618Z,20.87
2023-04-09T23:56:31.771Z,17.60
2023-04-09T23:58:59.295Z,20.47
